sensor_id;sensor_type;location;lat;lon;timestamp;P1;durP1;ratioP1;P2;durP2;ratioP2
21677;SDS011;11000;50.360;7.582;2022-10-31T00:01:12;12.57;;;6.97;;
21677;SDS011;11000;50.360;7.582;2022-10-31T00:03:41;11.17;;;7.20;;
21677;SDS011;11000;50.360;7.582;2022-10-31T00:06:01;9.87;;;6.37;;
21677;SDS011;11000;50.360;7.582;2022-10-31T00:08:22;12.67;;;6.93;;
21677;SDS011;11000;50.360;7.582;2022-10-31T00:10:43;11.80;;;7.57;;
21677;SDS011;11000;50.360;7.582;2022-10-31T00:13:04;7.40;;;6.10;;
21677;SDS011;11000;50.360;7.582;2022-10-31T00:15:25;11.93;;;6.63;;
21677;SDS011;11000;50.360;7.582;2022-10-31T00:17:46;13.37;;;7.20;;
21677;SDS011;11000;50.360;7.582;2022-10-31T00:20:06;14.20;;;7.10;;
21677;SDS011;11000;50.360;7.582;2022-10-31T00:22:27;9.27;;;6.67;;
21677;SDS011;11000;50.360;7.582;2022-10-31T00:24:48;13.37;;;6.27;;
21677;SDS011;11000;50.360;7.582;2022-10-31T00:27:08;12.50;;;6.60;;
21677;SDS011;11000;50.360;7.582;2022-10-31T00:29:29;12.97;;;6.57;;
21677;SDS011;11000;50.360;7.582;2022-10-31T00:31:49;16.60;;;7.10;;
21677;SDS011;11000;50.360;7.582;2022-10-31T00:34:11;12.10;;;6.17;;
21677;SDS011;11000;50.360;7.582;2022-10-31T00:36:32;12.20;;;6.60;;
21677;SDS011;11000;50.360;7.582;2022-10-31T00:38:52;11.03;;;6.60;;
21677;SDS011;11000;50.360;7.582;2022-10-31T00:41:13;10.90;;;6.73;;
21677;SDS011;11000;50.360;7.582;2022-10-31T00:43:36;12.63;;;6.43;;
21677;SDS011;11000;50.360;7.582;2022-10-31T00:45:56;11.50;;;6.03;;
21677;SDS011;11000;50.360;7.582;2022-10-31T00:48:17;8.47;;;5.93;;
21677;SDS011;11000;50.360;7.582;2022-10-31T00:50:38;15.50;;;7.30;;
21677;SDS011;11000;50.360;7.582;2022-10-31T00:52:58;10.57;;;5.80;;
21677;SDS011;11000;50.360;7.582;2022-10-31T00:57:46;9.63;;;6.50;;
21677;SDS011;11000;50.360;7.582;2022-10-31T01:00:07;15.00;;;7.17;;
21677;SDS011;11000;50.360;7.582;2022-10-31T01:02:28;13.03;;;6.90;;
21677;SDS011;11000;50.360;7.582;2022-10-31T01:04:49;8.93;;;6.73;;
21677;SDS011;11000;50.360;7.582;2022-10-31T01:07:09;15.40;;;7.63;;
21677;SDS011;11000;50.360;7.582;2022-10-31T01:09:32;8.63;;;6.00;;
21677;SDS011;11000;50.360;7.582;2022-10-31T01:11:52;12.40;;;6.63;;
21677;SDS011;11000;50.360;7.582;2022-10-31T01:14:13;7.37;;;6.00;;
21677;SDS011;11000;50.360;7.582;2022-10-31T01:16:33;9.20;;;6.67;;
21677;SDS011;11000;50.360;7.582;2022-10-31T01:18:54;12.10;;;6.70;;
21677;SDS011;11000;50.360;7.582;2022-10-31T01:21:16;14.90;;;6.23;;
21677;SDS011;11000;50.360;7.582;2022-10-31T01:23:37;11.47;;;6.17;;
21677;SDS011;11000;50.360;7.582;2022-10-31T01:26:02;10.40;;;6.67;;
21677;SDS011;11000;50.360;7.582;2022-10-31T01:28:38;11.93;;;6.47;;
21677;SDS011;11000;50.360;7.582;2022-10-31T01:31:09;11.23;;;6.67;;
21677;SDS011;11000;50.360;7.582;2022-10-31T01:33:29;11.77;;;7.10;;
21677;SDS011;11000;50.360;7.582;2022-10-31T01:35:50;15.77;;;8.03;;
21677;SDS011;11000;50.360;7.582;2022-10-31T01:38:10;18.10;;;8.50;;
21677;SDS011;11000;50.360;7.582;2022-10-31T01:40:31;12.43;;;8.63;;
21677;SDS011;11000;50.360;7.582;2022-10-31T01:42:51;14.27;;;7.97;;
21677;SDS011;11000;50.360;7.582;2022-10-31T01:45:12;12.50;;;8.33;;
21677;SDS011;11000;50.360;7.582;2022-10-31T01:47:40;13.60;;;8.17;;
21677;SDS011;11000;50.360;7.582;2022-10-31T01:50:09;13.77;;;8.73;;
21677;SDS011;11000;50.360;7.582;2022-10-31T01:52:34;12.97;;;8.43;;
21677;SDS011;11000;50.360;7.582;2022-10-31T01:55:01;13.13;;;8.87;;
21677;SDS011;11000;50.360;7.582;2022-10-31T01:57:35;13.30;;;8.07;;
21677;SDS011;11000;50.360;7.582;2022-10-31T01:59:59;17.83;;;8.10;;
21677;SDS011;11000;50.360;7.582;2022-10-31T02:02:23;10.60;;;7.07;;
21677;SDS011;11000;50.360;7.582;2022-10-31T02:04:45;12.30;;;7.73;;
21677;SDS011;11000;50.360;7.582;2022-10-31T02:07:08;12.77;;;7.73;;
21677;SDS011;11000;50.360;7.582;2022-10-31T02:09:33;12.20;;;6.67;;
21677;SDS011;11000;50.360;7.582;2022-10-31T02:11:56;15.63;;;6.87;;
21677;SDS011;11000;50.360;7.582;2022-10-31T02:14:18;10.27;;;6.97;;
21677;SDS011;11000;50.360;7.582;2022-10-31T02:16:42;12.23;;;6.97;;
21677;SDS011;11000;50.360;7.582;2022-10-31T02:19:03;12.30;;;7.27;;
21677;SDS011;11000;50.360;7.582;2022-10-31T02:24:49;9.80;;;6.97;;
21677;SDS011;11000;50.360;7.582;2022-10-31T02:27:16;11.77;;;6.77;;
21677;SDS011;11000;50.360;7.582;2022-10-31T02:30:02;15.23;;;7.10;;
21677;SDS011;11000;50.360;7.582;2022-10-31T02:32:32;12.90;;;6.00;;
21677;SDS011;11000;50.360;7.582;2022-10-31T02:35:14;9.30;;;6.33;;
21677;SDS011;11000;50.360;7.582;2022-10-31T02:38:10;12.43;;;6.10;;
21677;SDS011;11000;50.360;7.582;2022-10-31T02:41:04;12.43;;;6.27;;
21677;SDS011;11000;50.360;7.582;2022-10-31T02:46:24;13.07;;;6.30;;
21677;SDS011;11000;50.360;7.582;2022-10-31T02:48:52;9.57;;;6.07;;
21677;SDS011;11000;50.360;7.582;2022-10-31T02:51:17;8.60;;;5.97;;
21677;SDS011;11000;50.360;7.582;2022-10-31T02:53:38;8.43;;;6.17;;
21677;SDS011;11000;50.360;7.582;2022-10-31T02:56:11;11.40;;;6.20;;
21677;SDS011;11000;50.360;7.582;2022-10-31T02:58:34;13.60;;;7.13;;
21677;SDS011;11000;50.360;7.582;2022-10-31T03:04:11;11.43;;;5.33;;
21677;SDS011;11000;50.360;7.582;2022-10-31T03:09:31;10.73;;;6.07;;
21677;SDS011;11000;50.360;7.582;2022-10-31T03:14:40;8.03;;;6.00;;
21677;SDS011;11000;50.360;7.582;2022-10-31T03:17:31;14.53;;;6.77;;
21677;SDS011;11000;50.360;7.582;2022-10-31T03:19:56;14.90;;;6.10;;
21677;SDS011;11000;50.360;7.582;2022-10-31T03:22:21;13.20;;;5.83;;
21677;SDS011;11000;50.360;7.582;2022-10-31T03:24:47;12.60;;;5.57;;
21677;SDS011;11000;50.360;7.582;2022-10-31T03:27:11;13.87;;;5.97;;
21677;SDS011;11000;50.360;7.582;2022-10-31T03:29:35;9.23;;;5.57;;
21677;SDS011;11000;50.360;7.582;2022-10-31T03:31:58;10.87;;;5.60;;
21677;SDS011;11000;50.360;7.582;2022-10-31T03:34:22;8.63;;;5.37;;
21677;SDS011;11000;50.360;7.582;2022-10-31T03:36:43;12.50;;;6.17;;
21677;SDS011;11000;50.360;7.582;2022-10-31T03:39:07;14.83;;;6.60;;
21677;SDS011;11000;50.360;7.582;2022-10-31T03:41:31;8.33;;;5.43;;
21677;SDS011;11000;50.360;7.582;2022-10-31T03:43:59;11.60;;;5.87;;
21677;SDS011;11000;50.360;7.582;2022-10-31T03:46:26;13.70;;;5.93;;
21677;SDS011;11000;50.360;7.582;2022-10-31T03:48:47;11.73;;;5.67;;
21677;SDS011;11000;50.360;7.582;2022-10-31T03:51:22;12.23;;;5.80;;
21677;SDS011;11000;50.360;7.582;2022-10-31T03:54:06;11.20;;;5.43;;
21677;SDS011;11000;50.360;7.582;2022-10-31T03:56:48;11.47;;;5.60;;
21677;SDS011;11000;50.360;7.582;2022-10-31T03:59:17;10.60;;;5.93;;
21677;SDS011;11000;50.360;7.582;2022-10-31T04:01:44;15.93;;;5.90;;
21677;SDS011;11000;50.360;7.582;2022-10-31T04:04:09;10.17;;;5.50;;
21677;SDS011;11000;50.360;7.582;2022-10-31T04:06:30;7.93;;;5.60;;
21677;SDS011;11000;50.360;7.582;2022-10-31T04:08:56;13.47;;;6.90;;
21677;SDS011;11000;50.360;7.582;2022-10-31T04:11:20;16.83;;;5.93;;
21677;SDS011;11000;50.360;7.582;2022-10-31T04:13:44;8.77;;;5.60;;
21677;SDS011;11000;50.360;7.582;2022-10-31T04:16:06;10.37;;;5.87;;
21677;SDS011;11000;50.360;7.582;2022-10-31T04:18:28;8.93;;;5.77;;
21677;SDS011;11000;50.360;7.582;2022-10-31T04:20:48;8.13;;;5.33;;
21677;SDS011;11000;50.360;7.582;2022-10-31T04:23:25;7.50;;;5.00;;
21677;SDS011;11000;50.360;7.582;2022-10-31T04:25:46;15.73;;;6.20;;
21677;SDS011;11000;50.360;7.582;2022-10-31T04:28:06;12.10;;;5.93;;
21677;SDS011;11000;50.360;7.582;2022-10-31T04:30:27;11.73;;;5.50;;
21677;SDS011;11000;50.360;7.582;2022-10-31T04:32:47;9.40;;;5.30;;
21677;SDS011;11000;50.360;7.582;2022-10-31T04:35:08;12.33;;;6.50;;
21677;SDS011;11000;50.360;7.582;2022-10-31T04:37:28;8.13;;;5.33;;
21677;SDS011;11000;50.360;7.582;2022-10-31T04:39:49;10.57;;;5.23;;
21677;SDS011;11000;50.360;7.582;2022-10-31T04:42:09;7.47;;;6.27;;
21677;SDS011;11000;50.360;7.582;2022-10-31T04:44:30;7.60;;;5.50;;
21677;SDS011;11000;50.360;7.582;2022-10-31T04:46:50;11.73;;;5.50;;
21677;SDS011;11000;50.360;7.582;2022-10-31T04:49:11;8.90;;;5.60;;
21677;SDS011;11000;50.360;7.582;2022-10-31T04:51:31;10.97;;;5.47;;
21677;SDS011;11000;50.360;7.582;2022-10-31T04:53:52;10.10;;;5.53;;
21677;SDS011;11000;50.360;7.582;2022-10-31T04:56:12;10.90;;;5.97;;
21677;SDS011;11000;50.360;7.582;2022-10-31T04:58:33;9.27;;;5.83;;
21677;SDS011;11000;50.360;7.582;2022-10-31T05:00:54;7.23;;;5.90;;
21677;SDS011;11000;50.360;7.582;2022-10-31T05:03:15;15.07;;;6.50;;
21677;SDS011;11000;50.360;7.582;2022-10-31T05:05:36;10.73;;;5.87;;
21677;SDS011;11000;50.360;7.582;2022-10-31T05:07:56;7.93;;;5.73;;
21677;SDS011;11000;50.360;7.582;2022-10-31T05:10:18;9.27;;;5.60;;
21677;SDS011;11000;50.360;7.582;2022-10-31T05:12:47;12.17;;;6.10;;
21677;SDS011;11000;50.360;7.582;2022-10-31T05:15:09;12.50;;;6.17;;
21677;SDS011;11000;50.360;7.582;2022-10-31T05:17:30;7.23;;;6.07;;
21677;SDS011;11000;50.360;7.582;2022-10-31T05:19:51;9.83;;;5.93;;
21677;SDS011;11000;50.360;7.582;2022-10-31T05:22:11;12.00;;;5.47;;
21677;SDS011;11000;50.360;7.582;2022-10-31T05:24:32;8.93;;;5.40;;
21677;SDS011;11000;50.360;7.582;2022-10-31T05:26:52;13.57;;;6.37;;
21677;SDS011;11000;50.360;7.582;2022-10-31T05:29:13;7.93;;;5.77;;
21677;SDS011;11000;50.360;7.582;2022-10-31T05:31:33;9.93;;;5.80;;
21677;SDS011;11000;50.360;7.582;2022-10-31T05:33:54;9.50;;;5.80;;
21677;SDS011;11000;50.360;7.582;2022-10-31T05:36:14;6.37;;;5.40;;
21677;SDS011;11000;50.360;7.582;2022-10-31T05:38:35;9.47;;;6.17;;
21677;SDS011;11000;50.360;7.582;2022-10-31T05:40:55;8.50;;;5.73;;
21677;SDS011;11000;50.360;7.582;2022-10-31T05:43:22;10.73;;;6.03;;
21677;SDS011;11000;50.360;7.582;2022-10-31T05:45:43;13.27;;;6.10;;
21677;SDS011;11000;50.360;7.582;2022-10-31T05:48:04;11.87;;;6.27;;
21677;SDS011;11000;50.360;7.582;2022-10-31T05:50:25;13.70;;;6.23;;
21677;SDS011;11000;50.360;7.582;2022-10-31T05:52:47;13.20;;;7.30;;
21677;SDS011;11000;50.360;7.582;2022-10-31T05:55:14;11.10;;;7.23;;
21677;SDS011;11000;50.360;7.582;2022-10-31T05:57:35;14.73;;;8.47;;
21677;SDS011;11000;50.360;7.582;2022-10-31T05:59:55;12.07;;;7.70;;
21677;SDS011;11000;50.360;7.582;2022-10-31T06:02:16;12.37;;;8.63;;
21677;SDS011;11000;50.360;7.582;2022-10-31T06:04:36;18.87;;;8.83;;
21677;SDS011;11000;50.360;7.582;2022-10-31T06:06:57;14.40;;;8.20;;
21677;SDS011;11000;50.360;7.582;2022-10-31T06:09:17;17.43;;;8.77;;
21677;SDS011;11000;50.360;7.582;2022-10-31T06:11:38;14.53;;;8.33;;
21677;SDS011;11000;50.360;7.582;2022-10-31T06:13:59;15.93;;;7.97;;
21677;SDS011;11000;50.360;7.582;2022-10-31T06:16:20;14.03;;;8.20;;
21677;SDS011;11000;50.360;7.582;2022-10-31T06:18:41;13.93;;;7.97;;
21677;SDS011;11000;50.360;7.582;2022-10-31T06:21:01;14.07;;;7.07;;
21677;SDS011;11000;50.360;7.582;2022-10-31T06:23:22;11.93;;;7.10;;
21677;SDS011;11000;50.360;7.582;2022-10-31T06:25:42;11.43;;;7.87;;
21677;SDS011;11000;50.360;7.582;2022-10-31T06:28:03;14.47;;;8.37;;
21677;SDS011;11000;50.360;7.582;2022-10-31T06:30:23;17.90;;;9.37;;
21677;SDS011;11000;50.360;7.582;2022-10-31T06:32:45;14.17;;;8.37;;
21677;SDS011;11000;50.360;7.582;2022-10-31T06:35:05;17.30;;;8.03;;
21677;SDS011;11000;50.360;7.582;2022-10-31T06:37:26;14.80;;;7.00;;
21677;SDS011;11000;50.360;7.582;2022-10-31T06:39:46;11.03;;;7.40;;
21677;SDS011;11000;50.360;7.582;2022-10-31T06:42:07;12.53;;;7.73;;
21677;SDS011;11000;50.360;7.582;2022-10-31T06:44:27;11.80;;;7.73;;
21677;SDS011;11000;50.360;7.582;2022-10-31T06:46:48;15.23;;;7.50;;
21677;SDS011;11000;50.360;7.582;2022-10-31T06:49:08;12.27;;;8.03;;
21677;SDS011;11000;50.360;7.582;2022-10-31T06:51:29;11.73;;;7.40;;
21677;SDS011;11000;50.360;7.582;2022-10-31T06:53:50;14.53;;;8.17;;
21677;SDS011;11000;50.360;7.582;2022-10-31T06:56:10;14.93;;;8.57;;
21677;SDS011;11000;50.360;7.582;2022-10-31T06:58:31;17.77;;;8.53;;
21677;SDS011;11000;50.360;7.582;2022-10-31T07:00:51;13.53;;;8.63;;
21677;SDS011;11000;50.360;7.582;2022-10-31T07:03:12;12.90;;;8.33;;
21677;SDS011;11000;50.360;7.582;2022-10-31T07:05:35;13.80;;;8.60;;
21677;SDS011;11000;50.360;7.582;2022-10-31T07:07:56;14.43;;;8.27;;
21677;SDS011;11000;50.360;7.582;2022-10-31T07:10:18;17.40;;;9.50;;
21677;SDS011;11000;50.360;7.582;2022-10-31T07:12:39;13.87;;;9.60;;
21677;SDS011;11000;50.360;7.582;2022-10-31T07:14:59;14.90;;;9.57;;
21677;SDS011;11000;50.360;7.582;2022-10-31T07:17:22;20.77;;;10.43;;
21677;SDS011;11000;50.360;7.582;2022-10-31T07:19:44;15.77;;;10.00;;
21677;SDS011;11000;50.360;7.582;2022-10-31T07:22:04;17.67;;;9.83;;
21677;SDS011;11000;50.360;7.582;2022-10-31T07:24:25;18.23;;;10.30;;
21677;SDS011;11000;50.360;7.582;2022-10-31T07:26:46;18.03;;;9.60;;
21677;SDS011;11000;50.360;7.582;2022-10-31T07:29:07;15.80;;;10.10;;
21677;SDS011;11000;50.360;7.582;2022-10-31T07:31:27;18.10;;;9.73;;
21677;SDS011;11000;50.360;7.582;2022-10-31T07:33:48;23.67;;;10.53;;
21677;SDS011;11000;50.360;7.582;2022-10-31T07:36:08;16.13;;;9.57;;
21677;SDS011;11000;50.360;7.582;2022-10-31T07:38:29;18.70;;;11.13;;
21677;SDS011;11000;50.360;7.582;2022-10-31T07:40:50;19.03;;;10.50;;
21677;SDS011;11000;50.360;7.582;2022-10-31T07:43:12;18.80;;;10.10;;
21677;SDS011;11000;50.360;7.582;2022-10-31T07:45:33;19.17;;;10.30;;
21677;SDS011;11000;50.360;7.582;2022-10-31T07:47:54;14.93;;;9.10;;
21677;SDS011;11000;50.360;7.582;2022-10-31T07:50:17;11.97;;;8.30;;
21677;SDS011;11000;50.360;7.582;2022-10-31T07:52:39;10.83;;;8.13;;
21677;SDS011;11000;50.360;7.582;2022-10-31T07:55:00;15.57;;;9.17;;
21677;SDS011;11000;50.360;7.582;2022-10-31T07:57:21;13.30;;;8.77;;
21677;SDS011;11000;50.360;7.582;2022-10-31T07:59:42;12.83;;;8.13;;
21677;SDS011;11000;50.360;7.582;2022-10-31T08:02:02;18.93;;;10.07;;
21677;SDS011;11000;50.360;7.582;2022-10-31T08:04:23;13.57;;;8.70;;
21677;SDS011;11000;50.360;7.582;2022-10-31T08:06:43;13.30;;;8.30;;
21677;SDS011;11000;50.360;7.582;2022-10-31T08:09:04;13.47;;;8.03;;
21677;SDS011;11000;50.360;7.582;2022-10-31T08:11:24;14.97;;;8.90;;
21677;SDS011;11000;50.360;7.582;2022-10-31T08:13:46;16.90;;;10.23;;
21677;SDS011;11000;50.360;7.582;2022-10-31T08:16:06;18.37;;;9.23;;
21677;SDS011;11000;50.360;7.582;2022-10-31T08:18:27;15.80;;;9.77;;
21677;SDS011;11000;50.360;7.582;2022-10-31T08:20:48;16.93;;;10.13;;
21677;SDS011;11000;50.360;7.582;2022-10-31T08:23:10;13.23;;;9.27;;
21677;SDS011;11000;50.360;7.582;2022-10-31T08:25:32;13.37;;;9.43;;
21677;SDS011;11000;50.360;7.582;2022-10-31T08:27:54;15.20;;;9.03;;
21677;SDS011;11000;50.360;7.582;2022-10-31T08:30:15;18.50;;;9.87;;
21677;SDS011;11000;50.360;7.582;2022-10-31T08:32:36;21.60;;;10.00;;
21677;SDS011;11000;50.360;7.582;2022-10-31T08:34:57;15.03;;;8.57;;
21677;SDS011;11000;50.360;7.582;2022-10-31T08:37:18;14.67;;;9.37;;
21677;SDS011;11000;50.360;7.582;2022-10-31T08:39:39;13.73;;;9.47;;
21677;SDS011;11000;50.360;7.582;2022-10-31T08:42:00;14.20;;;9.37;;
21677;SDS011;11000;50.360;7.582;2022-10-31T08:44:20;13.60;;;9.47;;
21677;SDS011;11000;50.360;7.582;2022-10-31T08:46:41;18.30;;;9.73;;
21677;SDS011;11000;50.360;7.582;2022-10-31T08:49:01;15.37;;;9.70;;
21677;SDS011;11000;50.360;7.582;2022-10-31T08:51:22;15.17;;;9.57;;
21677;SDS011;11000;50.360;7.582;2022-10-31T08:53:43;17.97;;;9.57;;
21677;SDS011;11000;50.360;7.582;2022-10-31T08:56:03;16.60;;;10.60;;
21677;SDS011;11000;50.360;7.582;2022-10-31T08:58:24;15.93;;;9.43;;
21677;SDS011;11000;50.360;7.582;2022-10-31T09:00:46;14.70;;;9.50;;
21677;SDS011;11000;50.360;7.582;2022-10-31T09:03:21;13.60;;;8.90;;
21677;SDS011;11000;50.360;7.582;2022-10-31T09:05:43;12.87;;;9.50;;
21677;SDS011;11000;50.360;7.582;2022-10-31T09:08:06;13.60;;;8.90;;
21677;SDS011;11000;50.360;7.582;2022-10-31T09:10:27;13.33;;;9.80;;
21677;SDS011;11000;50.360;7.582;2022-10-31T09:12:59;13.53;;;9.33;;
21677;SDS011;11000;50.360;7.582;2022-10-31T09:15:21;13.00;;;9.07;;
21677;SDS011;11000;50.360;7.582;2022-10-31T09:17:45;11.13;;;7.63;;
21677;SDS011;11000;50.360;7.582;2022-10-31T09:20:07;11.67;;;7.97;;
21677;SDS011;11000;50.360;7.582;2022-10-31T09:22:28;11.70;;;8.67;;
21677;SDS011;11000;50.360;7.582;2022-10-31T09:24:49;13.00;;;8.20;;
21677;SDS011;11000;50.360;7.582;2022-10-31T09:27:09;11.17;;;9.00;;
21677;SDS011;11000;50.360;7.582;2022-10-31T09:29:30;13.80;;;8.20;;
21677;SDS011;11000;50.360;7.582;2022-10-31T09:31:50;11.40;;;8.07;;
21677;SDS011;11000;50.360;7.582;2022-10-31T09:34:11;12.47;;;8.50;;
21677;SDS011;11000;50.360;7.582;2022-10-31T09:36:31;11.13;;;8.30;;
21677;SDS011;11000;50.360;7.582;2022-10-31T09:38:52;19.43;;;13.20;;
21677;SDS011;11000;50.360;7.582;2022-10-31T09:41:18;12.23;;;9.50;;
21677;SDS011;11000;50.360;7.582;2022-10-31T09:46:30;13.43;;;9.43;;
21677;SDS011;11000;50.360;7.582;2022-10-31T09:51:45;12.10;;;8.80;;
21677;SDS011;11000;50.360;7.582;2022-10-31T09:54:18;16.07;;;8.97;;
21677;SDS011;11000;50.360;7.582;2022-10-31T09:56:50;13.67;;;8.33;;
21677;SDS011;11000;50.360;7.582;2022-10-31T09:59:13;18.33;;;10.07;;
21677;SDS011;11000;50.360;7.582;2022-10-31T10:01:48;17.70;;;8.97;;
21677;SDS011;11000;50.360;7.582;2022-10-31T10:04:27;17.60;;;9.70;;
21677;SDS011;11000;50.360;7.582;2022-10-31T10:07:19;19.07;;;9.50;;
21677;SDS011;11000;50.360;7.582;2022-10-31T10:09:41;12.80;;;9.03;;
21677;SDS011;11000;50.360;7.582;2022-10-31T10:12:12;14.10;;;9.70;;
21677;SDS011;11000;50.360;7.582;2022-10-31T10:25:37;13.83;;;9.47;;
21677;SDS011;11000;50.360;7.582;2022-10-31T10:28:21;15.40;;;9.53;;
21677;SDS011;11000;50.360;7.582;2022-10-31T10:30:48;14.83;;;9.90;;
21677;SDS011;11000;50.360;7.582;2022-10-31T10:33:20;18.57;;;9.83;;
21677;SDS011;11000;50.360;7.582;2022-10-31T10:35:49;13.70;;;9.97;;
21677;SDS011;11000;50.360;7.582;2022-10-31T10:40:42;12.47;;;9.63;;
21677;SDS011;11000;50.360;7.582;2022-10-31T10:45:54;13.63;;;9.33;;
21677;SDS011;11000;50.360;7.582;2022-10-31T10:48:43;13.47;;;9.23;;
21677;SDS011;11000;50.360;7.582;2022-10-31T10:51:10;18.27;;;9.53;;
21677;SDS011;11000;50.360;7.582;2022-10-31T10:56:25;15.90;;;10.47;;
21677;SDS011;11000;50.360;7.582;2022-10-31T10:58:56;15.47;;;10.27;;
21677;SDS011;11000;50.360;7.582;2022-10-31T11:01:17;14.60;;;10.43;;
21677;SDS011;11000;50.360;7.582;2022-10-31T11:03:38;13.13;;;9.63;;
21677;SDS011;11000;50.360;7.582;2022-10-31T11:05:59;22.27;;;10.77;;
21677;SDS011;11000;50.360;7.582;2022-10-31T11:08:23;13.90;;;9.73;;
21677;SDS011;11000;50.360;7.582;2022-10-31T11:10:45;16.17;;;10.30;;
21677;SDS011;11000;50.360;7.582;2022-10-31T11:13:24;17.43;;;10.87;;
21677;SDS011;11000;50.360;7.582;2022-10-31T11:16:03;16.87;;;10.17;;
21677;SDS011;11000;50.360;7.582;2022-10-31T11:18:31;13.63;;;9.73;;
21677;SDS011;11000;50.360;7.582;2022-10-31T11:20:56;15.03;;;10.20;;
21677;SDS011;11000;50.360;7.582;2022-10-31T11:23:19;19.23;;;11.80;;
21677;SDS011;11000;50.360;7.582;2022-10-31T11:25:47;17.00;;;10.77;;
21677;SDS011;11000;50.360;7.582;2022-10-31T11:28:11;18.53;;;11.90;;
21677;SDS011;11000;50.360;7.582;2022-10-31T11:30:35;16.53;;;11.10;;
21677;SDS011;11000;50.360;7.582;2022-10-31T11:33:02;17.80;;;10.93;;
21677;SDS011;11000;50.360;7.582;2022-10-31T11:35:24;15.70;;;11.43;;
21677;SDS011;11000;50.360;7.582;2022-10-31T11:37:46;15.63;;;10.93;;
21677;SDS011;11000;50.360;7.582;2022-10-31T11:40:16;19.07;;;12.13;;
21677;SDS011;11000;50.360;7.582;2022-10-31T11:42:44;20.00;;;10.43;;
21677;SDS011;11000;50.360;7.582;2022-10-31T11:45:07;16.17;;;10.77;;
21677;SDS011;11000;50.360;7.582;2022-10-31T11:47:40;16.13;;;10.67;;
21677;SDS011;11000;50.360;7.582;2022-10-31T11:50:09;13.30;;;8.57;;
21677;SDS011;11000;50.360;7.582;2022-10-31T11:52:31;12.27;;;8.53;;
21677;SDS011;11000;50.360;7.582;2022-10-31T11:54:57;16.77;;;10.67;;
21677;SDS011;11000;50.360;7.582;2022-10-31T11:57:47;15.13;;;10.70;;
21677;SDS011;11000;50.360;7.582;2022-10-31T12:02:49;17.20;;;9.73;;
21677;SDS011;11000;50.360;7.582;2022-10-31T12:05:21;16.43;;;9.00;;
21677;SDS011;11000;50.360;7.582;2022-10-31T12:07:49;14.50;;;9.30;;
21677;SDS011;11000;50.360;7.582;2022-10-31T12:10:10;13.67;;;9.80;;
21677;SDS011;11000;50.360;7.582;2022-10-31T12:25:50;21.80;;;12.27;;
21677;SDS011;11000;50.360;7.582;2022-10-31T12:31:25;15.50;;;10.27;;
21677;SDS011;11000;50.360;7.582;2022-10-31T12:34:23;17.93;;;11.63;;
21677;SDS011;11000;50.360;7.582;2022-10-31T12:37:13;16.93;;;11.27;;
21677;SDS011;11000;50.360;7.582;2022-10-31T13:01:35;17.50;;;12.40;;
21677;SDS011;11000;50.360;7.582;2022-10-31T13:06:54;19.97;;;13.47;;
21677;SDS011;11000;50.360;7.582;2022-10-31T13:09:22;20.70;;;13.17;;
21677;SDS011;11000;50.360;7.582;2022-10-31T13:11:51;19.27;;;13.33;;
21677;SDS011;11000;50.360;7.582;2022-10-31T13:14:25;23.63;;;13.00;;
21677;SDS011;11000;50.360;7.582;2022-10-31T13:16:49;21.40;;;12.23;;
21677;SDS011;11000;50.360;7.582;2022-10-31T13:19:20;21.47;;;13.27;;
21677;SDS011;11000;50.360;7.582;2022-10-31T13:21:51;21.53;;;11.23;;
21677;SDS011;11000;50.360;7.582;2022-10-31T13:24:16;20.60;;;11.60;;
21677;SDS011;11000;50.360;7.582;2022-10-31T13:26:42;18.70;;;11.27;;
21677;SDS011;11000;50.360;7.582;2022-10-31T13:31:42;17.90;;;11.20;;
21677;SDS011;11000;50.360;7.582;2022-10-31T13:34:04;19.47;;;11.53;;
21677;SDS011;11000;50.360;7.582;2022-10-31T13:39:57;18.93;;;11.53;;
21677;SDS011;11000;50.360;7.582;2022-10-31T13:45:15;19.53;;;12.60;;
21677;SDS011;11000;50.360;7.582;2022-10-31T13:47:37;16.97;;;11.43;;
21677;SDS011;11000;50.360;7.582;2022-10-31T13:50:05;18.27;;;10.50;;
21677;SDS011;11000;50.360;7.582;2022-10-31T13:52:40;18.47;;;11.40;;
21677;SDS011;11000;50.360;7.582;2022-10-31T13:55:00;15.30;;;10.83;;
21677;SDS011;11000;50.360;7.582;2022-10-31T14:00:25;19.00;;;10.30;;
21677;SDS011;11000;50.360;7.582;2022-10-31T14:02:47;17.03;;;10.53;;
21677;SDS011;11000;50.360;7.582;2022-10-31T14:05:23;17.47;;;10.80;;
21677;SDS011;11000;50.360;7.582;2022-10-31T14:07:45;17.70;;;10.97;;
21677;SDS011;11000;50.360;7.582;2022-10-31T14:10:19;20.63;;;10.97;;
21677;SDS011;11000;50.360;7.582;2022-10-31T14:12:44;20.70;;;10.60;;
21677;SDS011;11000;50.360;7.582;2022-10-31T14:15:14;19.17;;;10.70;;
21677;SDS011;11000;50.360;7.582;2022-10-31T14:18:02;19.77;;;12.50;;
21677;SDS011;11000;50.360;7.582;2022-10-31T14:20:24;20.10;;;11.90;;
21677;SDS011;11000;50.360;7.582;2022-10-31T14:22:51;21.53;;;12.63;;
21677;SDS011;11000;50.360;7.582;2022-10-31T14:25:29;24.03;;;14.73;;
21677;SDS011;11000;50.360;7.582;2022-10-31T14:27:54;19.40;;;13.23;;
21677;SDS011;11000;50.360;7.582;2022-10-31T14:30:16;21.97;;;13.37;;
21677;SDS011;11000;50.360;7.582;2022-10-31T14:32:42;25.10;;;13.67;;
21677;SDS011;11000;50.360;7.582;2022-10-31T14:35:03;22.10;;;13.43;;
21677;SDS011;11000;50.360;7.582;2022-10-31T14:43:27;16.47;;;10.83;;
21677;SDS011;11000;50.360;7.582;2022-10-31T14:45:43;15.93;;;9.50;;
21677;SDS011;11000;50.360;7.582;2022-10-31T14:48:43;15.40;;;8.73;;
21677;SDS011;11000;50.360;7.582;2022-10-31T14:51:23;13.63;;;7.87;;
21677;SDS011;11000;50.360;7.582;2022-10-31T14:53:52;18.40;;;8.60;;
21677;SDS011;11000;50.360;7.582;2022-10-31T14:56:37;18.47;;;10.80;;
21677;SDS011;11000;50.360;7.582;2022-10-31T14:59:08;18.67;;;10.00;;
21677;SDS011;11000;50.360;7.582;2022-10-31T15:01:33;16.23;;;10.20;;
21677;SDS011;11000;50.360;7.582;2022-10-31T15:06:49;14.93;;;8.07;;
21677;SDS011;11000;50.360;7.582;2022-10-31T15:09:23;19.83;;;8.33;;
21677;SDS011;11000;50.360;7.582;2022-10-31T15:11:44;13.83;;;8.83;;
21677;SDS011;11000;50.360;7.582;2022-10-31T15:14:14;14.77;;;8.47;;
21677;SDS011;11000;50.360;7.582;2022-10-31T15:16:41;15.50;;;8.63;;
21677;SDS011;11000;50.360;7.582;2022-10-31T15:19:07;13.90;;;8.40;;
21677;SDS011;11000;50.360;7.582;2022-10-31T15:21:31;18.20;;;8.73;;
21677;SDS011;11000;50.360;7.582;2022-10-31T15:23:54;13.60;;;8.03;;
21677;SDS011;11000;50.360;7.582;2022-10-31T15:26:18;13.77;;;8.37;;
21677;SDS011;11000;50.360;7.582;2022-10-31T15:28:39;18.57;;;8.60;;
21677;SDS011;11000;50.360;7.582;2022-10-31T15:31:00;13.17;;;7.70;;
21677;SDS011;11000;50.360;7.582;2022-10-31T15:33:26;16.33;;;8.33;;
21677;SDS011;11000;50.360;7.582;2022-10-31T15:36:01;13.27;;;7.10;;
21677;SDS011;11000;50.360;7.582;2022-10-31T15:38:22;9.43;;;5.43;;
21677;SDS011;11000;50.360;7.582;2022-10-31T15:40:50;10.60;;;7.27;;
21677;SDS011;11000;50.360;7.582;2022-10-31T15:43:14;11.20;;;6.40;;
21677;SDS011;11000;50.360;7.582;2022-10-31T15:45:36;8.87;;;4.80;;
21677;SDS011;11000;50.360;7.582;2022-10-31T15:47:57;7.77;;;4.63;;
21677;SDS011;11000;50.360;7.582;2022-10-31T15:50:40;8.70;;;4.27;;
21677;SDS011;11000;50.360;7.582;2022-10-31T15:53:05;9.50;;;4.33;;
21677;SDS011;11000;50.360;7.582;2022-10-31T15:55:36;11.87;;;3.83;;
21677;SDS011;11000;50.360;7.582;2022-10-31T15:58:10;7.83;;;3.90;;
21677;SDS011;11000;50.360;7.582;2022-10-31T16:00:34;9.97;;;3.83;;
21677;SDS011;11000;50.360;7.582;2022-10-31T16:05:36;8.00;;;4.40;;
21677;SDS011;11000;50.360;7.582;2022-10-31T16:08:20;10.80;;;4.67;;